Time;durP1;ratioP1;P1;durP2;ratioP2;P2;SDS_P1;SDS_P2;PMS_P1;PMS_P2;Temp;Humidity;BMP_temperature;BMP_pressure;BME280_temperature;BME280_humidity;BME280_pressure;Samples;Min_cycle;Max_cycle;Signal;HPM_P1;HPM_P2
2023/02/07 00:00:11;;;;;;;28.67;7.53;;;;;;;1.06;100.00;103702.84;5061350;28;20094;-69
2023/02/07 00:02:37;;;;;;;21.80;6.35;;;;;;;1.00;100.00;103692.78;5052125;28;20438;-69
2023/02/07 00:05:02;;;;;;;14.68;6.05;;;;;;;0.97;100.00;103698.56;5052820;28;20112;-68
2023/02/07 00:07:28;;;;;;;18.75;6.65;;;;;;;0.95;100.00;103700.13;5053017;28;20080;-69
2023/02/07 00:09:53;;;;;;;21.75;7.40;;;;;;;0.96;100.00;103688.06;5051109;28;20028;-70
2023/02/07 00:12:18;;;;;;;39.85;7.22;;;;;;;0.96;100.00;103683.81;5050499;28;20079;-69
2023/02/07 00:14:44;;;;;;;22.55;7.93;;;;;;;1.07;100.00;103683.94;5052601;28;20055;-69
2023/02/07 00:17:09;;;;;;;57.35;8.98;;;;;;;1.00;100.00;103683.34;5054817;28;20017;-67
2023/02/07 00:19:34;;;;;;;36.58;8.07;;;;;;;1.10;100.00;103681.66;5066154;28;20052;-69
2023/02/07 00:22:00;;;;;;;36.67;8.25;;;;;;;1.13;100.00;103682.00;5049851;28;20060;-69
2023/02/07 00:24:26;;;;;;;61.55;8.88;;;;;;;1.00;100.00;103675.56;5055418;28;20060;-69
2023/02/07 00:26:54;;;;;;;34.35;7.80;;;;;;;0.96;100.00;103681.22;5060299;28;20043;-68
2023/02/07 00:29:19;;;;;;;42.55;7.63;;;;;;;0.91;100.00;103677.22;5057475;28;20033;-68
2023/02/07 00:31:45;;;;;;;50.42;8.88;;;;;;;0.96;100.00;103681.22;5059169;28;20567;-70
2023/02/07 00:34:12;;;;;;;52.72;10.95;;;;;;;0.96;100.00;103675.09;5055280;28;20036;-69
2023/02/07 00:36:39;;;;;;;30.15;7.80;;;;;;;0.97;100.00;103682.13;5051665;28;20024;-70
2023/02/07 00:39:16;;;;;;;44.38;8.20;;;;;;;0.93;100.00;103686.06;5055751;28;20032;-68
2023/02/07 00:41:43;;;;;;;49.83;8.90;;;;;;;0.89;100.00;103678.72;5049410;28;20028;-69
2023/02/07 00:44:10;;;;;;;33.60;8.00;;;;;;;0.98;100.00;103674.47;5052257;28;20028;-69
2023/02/07 00:46:36;;;;;;;21.45;7.88;;;;;;;0.96;100.00;103669.91;5051287;28;20469;-69
2023/02/07 00:49:02;;;;;;;24.48;7.85;;;;;;;0.91;100.00;103677.22;5063033;28;20028;-69
2023/02/07 00:51:27;;;;;;;44.08;9.07;;;;;;;0.85;100.00;103671.41;5052632;28;20029;-71
2023/02/07 00:53:54;;;;;;;34.08;7.18;;;;;;;0.77;100.00;103672.31;5052257;28;20112;-68
2023/02/07 00:56:21;;;;;;;33.50;6.88;;;;;;;0.72;100.00;103673.50;5050677;28;20487;-68
2023/02/07 00:58:46;;;;;;;50.47;7.93;;;;;;;0.70;100.00;103665.56;5034522;28;20033;-68
2023/02/07 01:01:12;;;;;;;32.20;8.13;;;;;;;0.72;100.00;103660.53;5051819;28;20537;-68
2023/02/07 01:03:37;;;;;;;19.88;7.93;;;;;;;0.64;100.00;103663.28;5062632;28;20040;-69
2023/02/07 01:06:03;;;;;;;24.35;7.90;;;;;;;0.74;100.00;103665.13;5051658;28;20025;-70
2023/02/07 01:08:29;;;;;;;32.65;9.00;;;;;;;0.71;100.00;103657.03;5051926;28;20045;-69
2023/02/07 01:10:54;;;;;;;18.90;7.93;;;;;;;0.73;100.00;103660.69;5052094;28;20076;-69
2023/02/07 01:13:19;;;;;;;23.60;8.07;;;;;;;0.65;100.00;103667.72;5051412;28;20358;-69
2023/02/07 01:15:47;;;;;;;31.63;7.32;;;;;;;0.61;100.00;103660.38;5052118;28;20029;-69
2023/02/07 01:18:13;;;;;;;18.67;8.05;;;;;;;0.51;100.00;103667.94;5050328;28;20021;-69
2023/02/07 01:20:39;;;;;;;46.20;8.40;;;;;;;0.48;100.00;103665.94;5053279;28;20465;-70
2023/02/07 01:23:05;;;;;;;21.52;8.30;;;;;;;0.46;100.00;103669.16;5051532;28;20118;-69
2023/02/07 01:25:31;;;;;;;18.98;7.53;;;;;;;0.46;100.00;103674.31;5051900;28;20032;-68
2023/02/07 01:27:56;;;;;;;17.30;7.35;;;;;;;0.48;100.00;103665.06;5051574;28;20025;-69
2023/02/07 01:30:22;;;;;;;13.18;7.28;;;;;;;0.40;100.00;103669.44;5052861;28;20029;-69
2023/02/07 01:32:47;;;;;;;18.13;8.90;;;;;;;0.46;100.00;103677.84;5054431;28;20036;-69
2023/02/07 01:35:13;;;;;;;34.78;8.45;;;;;;;0.46;100.00;103679.50;5055618;28;20021;-68
2023/02/07 01:37:38;;;;;;;23.08;8.57;;;;;;;0.47;100.00;103678.75;5051573;28;20031;-69
2023/02/07 01:40:04;;;;;;;26.75;8.18;;;;;;;0.45;100.00;103677.69;5049982;28;20507;-71
2023/02/07 01:42:29;;;;;;;41.78;8.85;;;;;;;0.47;100.00;103681.34;5050074;28;20037;-70
2023/02/07 01:45:14;;;;;;;14.23;7.97;;;;;;;0.44;100.00;103675.84;5060361;28;20397;-69
2023/02/07 01:47:40;;;;;;;20.05;7.38;;;;;;;0.39;100.00;103687.41;5057286;28;20028;-68
2023/02/07 01:50:07;;;;;;;18.80;7.40;;;;;;;0.35;100.00;103680.06;5050889;28;20043;-68
2023/02/07 01:52:38;;;;;;;17.52;7.65;;;;;;;0.41;100.00;103680.72;5050975;28;20053;-68
2023/02/07 01:55:09;;;;;;;13.40;7.55;;;;;;;0.40;100.00;103678.88;5051674;28;20024;-68
2023/02/07 01:57:35;;;;;;;25.20;8.02;;;;;;;0.39;100.00;103682.22;5051401;28;20457;-70
2023/02/07 02:00:02;;;;;;;21.10;8.57;;;;;;;0.36;100.00;103687.09;5052854;28;20029;-69
2023/02/07 02:02:31;;;;;;;28.65;7.63;;;;;;;0.37;100.00;103681.13;5051200;28;20020;-69
2023/02/07 02:04:58;;;;;;;26.60;10.18;;;;;;;0.32;100.00;103681.56;5050404;28;20111;-70
2023/02/07 02:07:24;;;;;;;19.00;9.57;;;;;;;0.32;100.00;103686.75;5054823;28;20124;-71
2023/02/07 02:09:50;;;;;;;26.75;9.65;;;;;;;0.43;100.00;103695.63;5054972;28;20032;-70
2023/02/07 02:12:40;;;;;;;26.23;10.35;;;;;;;0.54;100.00;103691.56;5053398;28;20025;-68
2023/02/07 02:15:45;;;;;;;19.38;9.70;;;;;;;0.54;100.00;103681.22;5055059;28;20541;-69
2023/02/07 02:18:40;;;;;;;17.58;9.00;;;;;;;0.48;100.00;103690.97;5062001;28;20024;-69
2023/02/07 02:21:20;;;;;;;17.05;9.20;;;;;;;0.47;100.00;103691.72;5049235;28;20037;-71
2023/02/07 02:23:45;;;;;;;20.77;8.60;;;;;;;0.37;100.00;103679.47;5075416;28;20409;-68
2023/02/07 02:26:44;;;;;;;26.40;9.48;;;;;;;0.35;100.00;103675.81;5054946;28;20060;-69
2023/02/07 02:29:32;;;;;;;17.52;9.25;;;;;;;0.31;100.00;103676.25;5052509;28;20040;-69
2023/02/07 02:32:00;;;;;;;18.40;7.57;;;;;;;0.25;100.00;103683.38;5070294;28;20060;-69
2023/02/07 02:34:43;;;;;;;15.40;8.25;;;;;;;0.21;100.00;103681.25;5059800;28;20021;-68
2023/02/07 02:37:11;;;;;;;15.30;7.60;;;;;;;0.17;100.00;103678.31;5054271;28;20044;-68
2023/02/07 02:39:50;;;;;;;12.90;7.47;;;;;;;0.16;100.00;103671.31;5054336;28;20033;-68
2023/02/07 02:42:29;;;;;;;14.10;8.07;;;;;;;0.16;100.00;103672.97;5052616;28;20028;-70
2023/02/07 02:45:12;;;;;;;12.45;7.70;;;;;;;0.17;100.00;103677.41;5054591;28;20040;-68
2023/02/07 02:47:41;;;;;;;13.05;7.68;;;;;;;0.30;100.00;103675.34;5056571;28;20020;-68
2023/02/07 02:50:11;;;;;;;18.48;8.95;;;;;;;0.26;100.00;103675.78;5057858;28;20033;-68
2023/02/07 02:52:36;;;;;;;19.92;8.35;;;;;;;0.27;100.00;103664.66;5060245;28;20023;-70
2023/02/07 02:55:02;;;;;;;15.13;8.30;;;;;;;0.22;100.00;103658.09;5056011;28;20032;-69
2023/02/07 02:57:49;;;;;;;9.52;6.78;;;;;;;0.18;100.00;103658.53;5060434;28;20048;-69
2023/02/07 03:00:24;;;;;;;18.13;8.18;;;;;;;0.12;100.00;103664.00;5055540;28;20082;-69
2023/02/07 03:03:10;;;;;;;17.88;8.10;;;;;;;0.10;100.00;103656.81;5053486;28;20036;-69
2023/02/07 03:06:09;;;;;;;27.55;7.70;;;;;;;0.06;100.00;103641.72;5056031;28;20035;-68
2023/02/07 03:08:53;;;;;;;18.13;7.50;;;;;;;0.05;100.00;103648.53;5057464;28;20045;-70
2023/02/07 03:11:21;;;;;;;14.70;8.10;;;;;;;0.07;100.00;103651.28;5068852;28;20028;-69
2023/02/07 03:14:25;;;;;;;19.48;8.90;;;;;;;0.16;100.00;103657.44;5054083;28;20491;-68
2023/02/07 03:17:10;;;;;;;18.52;8.80;;;;;;;0.18;100.00;103650.75;5043121;28;20120;-70
2023/02/07 03:19:51;;;;;;;14.63;9.10;;;;;;;0.21;100.00;103644.97;5054862;28;20111;-69
2023/02/07 03:22:22;;;;;;;20.80;10.48;;;;;;;0.29;100.00;103644.09;5059330;28;20036;-68
2023/02/07 03:24:52;;;;;;;25.75;10.73;;;;;;;0.33;100.00;103635.88;5053946;28;20067;-69
2023/02/07 03:27:20;;;;;;;17.85;9.70;;;;;;;0.43;100.00;103650.69;5060332;28;20376;-70
2023/02/07 03:29:51;;;;;;;23.73;9.52;;;;;;;0.45;100.00;103639.75;5052125;28;20048;-69
2023/02/07 03:32:19;;;;;;;31.23;10.45;;;;;;;0.53;100.00;103631.84;5057575;28;20044;-70
2023/02/07 03:35:21;;;;;;;31.02;10.82;;;;;;;0.53;100.00;103637.00;5053446;28;20025;-69
2023/02/07 03:37:52;;;;;;;20.63;10.27;;;;;;;0.51;100.00;103636.84;5053716;28;20025;-70
2023/02/07 03:40:18;;;;;;;24.35;11.02;;;;;;;0.53;100.00;103635.34;5050219;28;20111;-69
2023/02/07 03:42:58;;;;;;;23.40;10.50;;;;;;;0.50;100.00;103641.13;5051861;28;20025;-68
2023/02/07 03:45:24;;;;;;;18.20;9.95;;;;;;;0.47;100.00;103629.53;5053270;28;20473;-69
2023/02/07 03:47:49;;;;;;;17.77;9.90;;;;;;;0.42;100.00;103628.13;5069500;28;20043;-70
2023/02/07 03:50:16;;;;;;;32.20;9.75;;;;;;;0.33;100.00;103631.63;5058142;28;20381;-69
2023/02/07 03:52:41;;;;;;;17.45;9.00;;;;;;;0.31;100.00;103639.97;5053304;28;20102;-68
2023/02/07 03:55:07;;;;;;;27.85;9.75;;;;;;;0.30;100.00;103640.75;5053266;28;20032;-70
2023/02/07 03:57:33;;;;;;;22.13;9.95;;;;;;;0.33;100.00;103641.97;5061960;28;20032;-70
2023/02/07 03:59:58;;;;;;;25.38;10.40;;;;;;;0.37;100.00;103639.69;5052977;28;20036;-70
2023/02/07 04:02:24;;;;;;;24.65;10.15;;;;;;;0.33;100.00;103647.16;5056744;28;20472;-70
2023/02/07 04:04:49;;;;;;;20.25;9.38;;;;;;;0.32;100.00;103637.53;5058091;28;20388;-70
2023/02/07 04:07:15;;;;;;;20.58;10.10;;;;;;;0.30;100.00;103641.66;5050085;28;20489;-69
2023/02/07 04:09:40;;;;;;;20.42;9.57;;;;;;;0.26;100.00;103641.16;5051253;28;20023;-69
2023/02/07 04:12:05;;;;;;;29.60;11.85;;;;;;;0.21;100.00;103643.28;5051481;28;20033;-69
2023/02/07 04:14:31;;;;;;;22.45;10.18;;;;;;;0.17;100.00;103643.75;5054217;28;20357;-69
2023/02/07 04:16:56;;;;;;;33.35;10.38;;;;;;;0.18;100.00;103637.81;5051514;28;20108;-70
2023/02/07 04:19:21;;;;;;;21.85;10.07;;;;;;;0.12;100.00;103635.50;5035776;28;20052;-69
2023/02/07 04:21:47;;;;;;;22.73;9.65;;;;;;;0.11;100.00;103628.47;5051230;28;20083;-68
2023/02/07 04:24:12;;;;;;;20.73;11.10;;;;;;;0.07;100.00;103641.88;5051104;28;20029;-70
2023/02/07 04:26:38;;;;;;;27.00;11.57;;;;;;;0.11;100.00;103645.66;5053026;28;20041;-69
2023/02/07 04:29:03;;;;;;;25.25;11.00;;;;;;;0.10;100.00;103646.44;5051944;28;20033;-69
2023/02/07 04:31:28;;;;;;;26.23;11.65;;;;;;;0.08;100.00;103645.38;5051516;28;20039;-69
2023/02/07 04:33:54;;;;;;;29.42;11.35;;;;;;;0.03;100.00;103646.53;5062392;28;20480;-69
2023/02/07 04:36:19;;;;;;;22.35;10.50;;;;;;;0.07;100.00;103651.28;5054538;28;20036;-69
2023/02/07 04:38:44;;;;;;;26.20;11.52;;;;;;;0.07;100.00;103651.28;5057135;28;20016;-70
2023/02/07 04:41:10;;;;;;;27.92;12.43;;;;;;;0.10;100.00;103641.28;5056413;28;20029;-68
2023/02/07 04:43:36;;;;;;;29.65;12.57;;;;;;;0.13;100.00;103651.94;5052834;28;20031;-69
2023/02/07 04:46:03;;;;;;;29.20;11.93;;;;;;;0.15;100.00;103640.09;5055718;28;20044;-69
2023/02/07 04:48:29;;;;;;;38.47;13.65;;;;;;;0.19;100.00;103642.25;5043454;28;20529;-70
2023/02/07 04:50:54;;;;;;;33.40;12.25;;;;;;;0.22;100.00;103636.44;5052153;28;20116;-69
2023/02/07 04:53:19;;;;;;;36.78;12.15;;;;;;;0.15;100.00;103630.63;5057001;28;20429;-69
2023/02/07 04:55:53;;;;;;;28.63;12.80;;;;;;;0.14;100.00;103622.72;5051830;28;20463;-71
2023/02/07 04:58:19;;;;;;;27.13;11.45;;;;;;;0.07;100.00;103628.00;5058020;28;20024;-70
2023/02/07 05:00:45;;;;;;;25.67;12.07;;;;;;;0.05;100.00;103624.34;5055922;28;20036;-70
2023/02/07 05:03:10;;;;;;;38.97;12.65;;;;;;;0.04;100.00;103630.25;5058329;28;20070;-69
2023/02/07 05:05:43;;;;;;;36.05;13.15;;;;;;;0.04;100.00;103622.50;5052779;28;20420;-69
2023/02/07 05:08:09;;;;;;;27.35;11.55;;;;;;;-0.05;100.00;103622.47;5050858;28;20493;-72
2023/02/07 05:10:35;;;;;;;39.13;12.32;;;;;;;-0.16;100.00;103626.53;5049270;28;20684;-69
2023/02/07 05:13:01;;;;;;;27.30;12.35;;;;;;;-0.21;100.00;103632.88;5053761;28;20231;-69
2023/02/07 05:15:27;;;;;;;23.02;11.50;;;;;;;-0.15;100.00;103635.19;5057189;28;20547;-70
2023/02/07 05:17:52;;;;;;;26.08;11.30;;;;;;;-0.22;100.00;103633.63;5047355;28;20114;-69
2023/02/07 05:20:19;;;;;;;20.35;10.63;;;;;;;-0.24;100.00;103637.75;5057678;28;20020;-67
2023/02/07 05:22:44;;;;;;;29.73;11.70;;;;;;;-0.25;100.00;103638.47;5051249;28;20049;-69
2023/02/07 05:25:09;;;;;;;34.90;11.43;;;;;;;-0.35;100.00;103646.94;5055332;28;20488;-71
2023/02/07 05:27:36;;;;;;;28.77;11.10;;;;;;;-0.37;100.00;103646.78;5051702;28;20029;-69
2023/02/07 05:30:02;;;;;;;25.17;11.13;;;;;;;-0.34;100.00;103641.00;5052956;28;20052;-70
2023/02/07 05:35:11;;;;;;;37.47;13.07;;;;;;;-0.36;100.00;103638.25;5050996;28;20052;-69
2023/02/07 05:37:37;;;;;;;30.67;11.63;;;;;;;-0.40;100.00;103649.03;5047702;28;20029;-69
2023/02/07 05:40:03;;;;;;;22.45;10.93;;;;;;;-0.49;100.00;103650.63;5049810;28;20028;-69
2023/02/07 05:42:28;;;;;;;25.70;10.68;;;;;;;-0.46;100.00;103650.03;5050489;28;20036;-69
2023/02/07 05:44:53;;;;;;;25.92;11.63;;;;;;;-0.44;100.00;103646.88;5054401;28;20025;-70
2023/02/07 05:47:19;;;;;;;27.98;11.88;;;;;;;-0.44;100.00;103644.28;5054535;28;20025;-67
2023/02/07 05:49:44;;;;;;;27.17;12.25;;;;;;;-0.49;100.00;103650.63;5048690;28;20068;-69
2023/02/07 05:52:09;;;;;;;26.90;12.88;;;;;;;-0.52;100.00;103656.41;5057833;28;20036;-69
2023/02/07 05:54:35;;;;;;;28.40;12.63;;;;;;;-0.60;100.00;103657.25;5054234;28;20020;-70
2023/02/07 05:57:00;;;;;;;30.35;12.70;;;;;;;-0.62;100.00;103642.34;5054550;28;20036;-70
2023/02/07 05:59:25;;;;;;;28.98;11.85;;;;;;;-0.61;100.00;103649.31;5052057;28;20456;-71
2023/02/07 06:01:51;;;;;;;28.10;11.90;;;;;;;-0.60;100.00;103651.16;5055105;28;20063;-70
2023/02/07 06:04:16;;;;;;;23.95;11.95;;;;;;;-0.48;100.00;103651.56;5054649;28;20555;-70
2023/02/07 06:06:42;;;;;;;31.35;12.98;;;;;;;-0.52;100.00;103655.47;5054603;28;20484;-70
2023/02/07 06:09:07;;;;;;;25.00;11.40;;;;;;;-0.61;100.00;103654.50;5052614;28;20194;-70
2023/02/07 06:11:33;;;;;;;22.05;10.50;;;;;;;-0.66;100.00;103650.47;5054381;28;20069;-72
2023/02/07 06:13:58;;;;;;;20.70;9.70;;;;;;;-0.70;100.00;103650.16;5055079;28;20029;-72
2023/02/07 06:16:23;;;;;;;25.42;9.82;;;;;;;-0.72;100.00;103655.91;5052766;28;20021;-70
2023/02/07 06:18:49;;;;;;;21.15;10.15;;;;;;;-0.77;100.00;103658.03;5048064;28;20419;-70
2023/02/07 06:21:14;;;;;;;14.20;9.55;;;;;;;-0.83;100.00;103657.34;5052796;28;20029;-70
2023/02/07 06:23:39;;;;;;;16.95;10.07;;;;;;;-0.81;100.00;103661.03;5054190;28;20028;-71
2023/02/07 06:26:05;;;;;;;25.70;10.05;;;;;;;-0.83;100.00;103667.69;5054379;28;20060;-71
2023/02/07 06:28:30;;;;;;;24.10;10.98;;;;;;;-0.91;100.00;103673.69;5054237;28;20060;-69
2023/02/07 06:30:56;;;;;;;25.55;10.85;;;;;;;-0.95;100.00;103666.34;5055166;28;20021;-71
2023/02/07 06:33:21;;;;;;;39.28;10.43;;;;;;;-0.99;100.00;103665.13;5058872;28;20052;-71
2023/02/07 06:35:47;;;;;;;23.15;10.38;;;;;;;-0.94;100.00;103673.38;5052564;28;20021;-70
2023/02/07 06:38:13;;;;;;;22.27;9.50;;;;;;;-1.02;100.00;103669.94;5054472;28;20511;-70
2023/02/07 06:40:39;;;;;;;18.60;10.85;;;;;;;-1.06;100.00;103673.88;5053093;28;20113;-71
2023/02/07 06:43:05;;;;;;;21.50;10.82;;;;;;;-1.10;100.00;103682.03;5051758;28;20060;-71
2023/02/07 06:45:30;;;;;;;28.23;10.50;;;;;;;-1.13;100.00;103685.94;5052584;28;20032;-70
2023/02/07 06:47:55;;;;;;;25.85;12.57;;;;;;;-1.06;100.00;103675.53;5052342;28;20070;-71
2023/02/07 06:50:21;;;;;;;28.60;12.27;;;;;;;-1.12;100.00;103675.78;5049789;28;20048;-69
2023/02/07 06:52:46;;;;;;;19.70;11.27;;;;;;;-1.12;100.00;103680.94;5052542;28;20130;-69
2023/02/07 06:55:11;;;;;;;21.65;13.27;;;;;;;-1.09;100.00;103682.94;5048037;28;20446;-70
2023/02/07 06:57:37;;;;;;;33.22;12.00;;;;;;;-0.96;100.00;103677.44;5050836;28;20027;-70
2023/02/07 07:00:04;;;;;;;22.60;11.77;;;;;;;-1.16;100.00;103680.44;5051929;28;20060;-70
2023/02/07 07:02:29;;;;;;;24.38;12.27;;;;;;;-1.12;100.00;103680.94;5052191;28;20641;-69
2023/02/07 07:04:54;;;;;;;23.10;11.38;;;;;;;-1.14;100.00;103679.88;5048926;28;20017;-70
2023/02/07 07:07:20;;;;;;;24.80;11.57;;;;;;;-1.12;100.00;103686.09;5061850;28;20046;-70
2023/02/07 07:09:45;;;;;;;21.42;12.80;;;;;;;-1.16;100.00;103686.53;5059718;28;20017;-70
2023/02/07 07:12:11;;;;;;;24.05;12.18;;;;;;;-1.12;100.00;103693.84;5054568;28;20435;-68
2023/02/07 07:14:36;;;;;;;26.83;12.63;;;;;;;-1.14;100.00;103697.97;5053300;28;20040;-69
2023/02/07 07:17:02;;;;;;;23.45;12.13;;;;;;;-1.10;100.00;103700.13;5051829;28;20493;-69
2023/02/07 07:19:27;;;;;;;25.55;11.20;;;;;;;-1.04;100.00;103698.19;5048766;28;20028;-69
2023/02/07 07:21:54;;;;;;;22.73;13.90;;;;;;;-0.95;100.00;103699.97;5053832;28;20086;-70
2023/02/07 07:24:20;;;;;;;29.33;14.35;;;;;;;-0.88;100.00;103697.31;5041041;28;20038;-70
2023/02/07 07:26:45;;;;;;;43.33;16.02;;;;;;;-0.76;100.00;103706.41;5051930;28;20238;-70
2023/02/07 07:29:11;;;;;;;56.22;19.55;;;;;;;-0.57;100.00;103703.19;5043086;28;20111;-69
2023/02/07 07:31:36;;;;;;;66.60;22.48;;;;;;;-0.47;100.00;103712.91;5060306;28;20029;-69
2023/02/07 07:34:01;;;;;;;76.35;26.45;;;;;;;-0.37;100.00;103708.88;5050808;28;20104;-68
2023/02/07 07:36:27;;;;;;;69.28;24.67;;;;;;;-0.26;100.00;103712.63;5053511;28;20067;-68
2023/02/07 07:38:52;;;;;;;70.38;25.02;;;;;;;-0.16;100.00;103714.50;5044884;28;20047;-70
2023/02/07 07:41:18;;;;;;;77.25;25.50;;;;;;;-0.13;100.00;103725.19;5053142;28;20022;-68
2023/02/07 07:43:43;;;;;;;72.93;24.00;;;;;;;-0.06;100.00;103722.47;5047534;28;20107;-69
2023/02/07 07:46:08;;;;;;;61.30;23.23;;;;;;;-0.05;100.00;103720.84;5051583;28;20033;-70
2023/02/07 07:48:34;;;;;;;68.80;25.23;;;;;;;-0.09;100.00;103721.25;5051457;28;20389;-68
2023/02/07 07:50:59;;;;;;;67.80;25.55;;;;;;;-0.05;100.00;103726.91;5051536;28;21408;-69
2023/02/07 07:53:25;;;;;;;75.10;25.38;;;;;;;-0.09;100.00;103722.16;5043174;28;20025;-70
2023/02/07 07:55:52;;;;;;;64.78;23.38;;;;;;;-0.07;100.00;103736.19;5033487;28;20018;-70
2023/02/07 07:58:19;;;;;;;68.28;22.25;;;;;;;-0.14;100.00;103730.19;5047570;28;20029;-69
2023/02/07 08:00:46;;;;;;;57.45;22.80;;;;;;;-0.17;100.00;103725.59;5053195;28;20103;-69
2023/02/07 08:03:12;;;;;;;62.40;22.23;;;;;;;-0.26;100.00;103727.22;5052508;28;20483;-69
2023/02/07 08:05:37;;;;;;;76.63;23.77;;;;;;;-0.26;100.00;103728.16;5052181;28;20086;-70
2023/02/07 08:08:03;;;;;;;61.78;20.88;;;;;;;-0.24;100.00;103725.72;5044809;28;20045;-70
2023/02/07 08:10:29;;;;;;;73.32;22.48;;;;;;;-0.20;100.00;103722.69;5034267;28;20394;-69
2023/02/07 08:12:54;;;;;;;87.82;21.73;;;;;;;-0.17;100.00;103729.09;5034066;28;20064;-70
2023/02/07 08:15:19;;;;;;;113.10;22.20;;;;;;;-0.17;100.00;103723.03;5033475;28;20036;-69
2023/02/07 08:17:45;;;;;;;84.88;22.17;;;;;;;-0.18;100.00;103716.00;5035614;28;20029;-69
2023/02/07 08:20:11;;;;;;;88.35;23.02;;;;;;;-0.16;100.00;103730.03;5045109;28;20037;-70
2023/02/07 08:22:37;;;;;;;73.28;24.52;;;;;;;-0.15;100.00;103729.25;5033334;28;20036;-69
2023/02/07 08:25:03;;;;;;;124.18;26.15;;;;;;;-0.12;100.00;103727.03;5036750;28;20037;-70
2023/02/07 08:27:28;;;;;;;74.03;21.67;;;;;;;-0.08;100.00;103729.19;5049642;28;20047;-69
2023/02/07 08:29:54;;;;;;;95.60;24.00;;;;;;;-0.01;100.00;103735.94;5036714;28;20029;-69
2023/02/07 08:32:19;;;;;;;78.93;21.92;;;;;;;-0.26;100.00;103730.72;5032812;28;20021;-69
2023/02/07 08:34:44;;;;;;;60.72;22.38;;;;;;;-0.31;100.00;103721.56;5053044;28;20029;-68
2023/02/07 08:37:10;;;;;;;59.92;22.00;;;;;;;-0.20;100.00;103730.47;5052664;28;20055;-69
2023/02/07 08:39:35;;;;;;;79.70;21.52;;;;;;;-0.14;100.00;103725.03;5047608;28;20457;-69
2023/02/07 08:42:04;;;;;;;76.13;23.48;;;;;;;-0.04;100.00;103717.47;5043994;28;20037;-69
2023/02/07 08:44:30;;;;;;;76.75;23.85;;;;;;;0.01;100.00;103725.75;5037980;28;20049;-70
2023/02/07 08:46:55;;;;;;;72.00;22.70;;;;;;;0.10;100.00;103729.31;5047171;28;20037;-71
2023/02/07 08:49:20;;;;;;;70.35;24.45;;;;;;;0.13;100.00;103730.53;5046498;28;20124;-71
2023/02/07 08:51:46;;;;;;;58.60;23.13;;;;;;;0.22;100.00;103732.25;5043035;28;20110;-70
2023/02/07 08:54:11;;;;;;;58.40;21.20;;;;;;;0.14;100.00;103739.22;5032992;28;20033;-70
2023/02/07 08:56:36;;;;;;;69.55;24.35;;;;;;;0.11;100.00;103733.69;5039371;28;20088;-72
2023/02/07 08:59:02;;;;;;;59.10;23.52;;;;;;;0.14;100.00;103734.06;5050487;28;20086;-71
2023/02/07 09:01:27;;;;;;;65.45;23.63;;;;;;;0.15;100.00;103730.72;5041338;28;20025;-71
2023/02/07 09:03:56;;;;;;;58.80;23.40;;;;;;;0.20;100.00;103734.69;5048921;28;20029;-70
2023/02/07 09:06:23;;;;;;;53.95;21.60;;;;;;;0.20;100.00;103729.50;5054767;28;20041;-73
2023/02/07 09:08:49;;;;;;;54.08;20.70;;;;;;;0.12;100.00;103736.47;5050345;28;20048;-69
2023/02/07 09:11:15;;;;;;;49.92;20.98;;;;;;;0.21;100.00;103739.13;5037765;28;20074;-69
2023/02/07 09:13:44;;;;;;;59.90;22.60;;;;;;;0.21;100.00;103739.13;5041535;28;20029;-70
2023/02/07 09:16:10;;;;;;;63.13;21.83;;;;;;;0.19;100.00;103734.53;5032763;28;20108;-69
2023/02/07 09:18:35;;;;;;;91.03;25.45;;;;;;;0.25;100.00;103730.00;5042166;28;20078;-71
2023/02/07 09:21:01;;;;;;;110.53;25.58;;;;;;;0.27;100.00;103729.41;5048308;28;20061;-70
2023/02/07 09:23:26;;;;;;;61.55;24.00;;;;;;;0.36;100.00;103731.13;5051419;28;20032;-70
2023/02/07 09:25:52;;;;;;;62.50;22.10;;;;;;;0.48;100.00;103729.81;5046863;28;20037;-70
2023/02/07 09:28:20;;;;;;;63.05;24.25;;;;;;;0.50;100.00;103728.28;5046544;28;20029;-70
2023/02/07 09:30:47;;;;;;;58.65;23.45;;;;;;;0.51;100.00;103730.13;5050325;28;20063;-71
2023/02/07 09:33:14;;;;;;;63.63;24.73;;;;;;;0.59;100.00;103718.88;5052337;28;21528;-71
2023/02/07 09:35:42;;;;;;;69.88;25.63;;;;;;;0.71;100.00;103727.03;5053404;28;20017;-71
2023/02/07 09:38:12;;;;;;;63.53;22.88;;;;;;;0.76;100.00;103735.25;5052298;28;20031;-70
2023/02/07 09:40:38;;;;;;;58.17;24.08;;;;;;;0.85;100.00;103736.22;5037665;28;20037;-71
2023/02/07 09:43:23;;;;;;;54.55;22.95;;;;;;;0.83;100.00;103735.16;5062617;28;20021;-69
2023/02/07 09:45:55;;;;;;;54.08;24.20;;;;;;;0.94;100.00;103724.19;5054443;28;20051;-69
2023/02/07 09:48:24;;;;;;;55.58;22.08;;;;;;;0.93;100.00;103721.44;5048272;28;20024;-69
2023/02/07 09:51:01;;;;;;;63.83;24.67;;;;;;;1.04;100.00;103718.25;5048702;28;20033;-70
2023/02/07 09:54:04;;;;;;;68.75;23.92;;;;;;;1.21;100.00;103712.22;5048594;28;20476;-69
2023/02/07 09:56:31;;;;;;;48.83;21.75;;;;;;;1.16;100.00;103721.19;5033556;28;20421;-71
2023/02/07 09:59:15;;;;;;;55.75;22.35;;;;;;;1.15;100.00;103727.13;5051356;28;20540;-69
2023/02/07 10:01:49;;;;;;;58.10;21.40;;;;;;;1.21;100.00;103727.78;5046454;28;20032;-70
2023/02/07 10:04:17;;;;;;;58.15;22.63;;;;;;;1.17;100.00;103720.44;5046958;28;21162;-69
2023/02/07 10:06:46;;;;;;;73.13;23.50;;;;;;;1.21;100.00;103714.81;5055892;28;20484;-70
2023/02/07 10:09:17;;;;;;;71.72;21.45;;;;;;;1.42;100.00;103730.69;5066010;28;20101;-70
2023/02/07 10:12:18;;;;;;;70.00;23.27;;;;;;;1.30;100.00;103722.59;5056157;28;20025;-69
2023/02/07 10:15:01;;;;;;;44.35;20.67;;;;;;;1.58;100.00;103728.88;5037737;28;20044;-69
2023/02/07 10:17:30;;;;;;;75.43;23.42;;;;;;;1.27;100.00;103730.97;5051575;28;20029;-69
2023/02/07 10:19:58;;;;;;;55.47;21.83;;;;;;;1.44;100.00;103739.53;5051001;28;20052;-70
2023/02/07 10:22:35;;;;;;;56.67;20.20;;;;;;;1.44;100.00;103742.13;5048095;28;20024;-70
2023/02/07 10:25:14;;;;;;;80.40;23.90;;;;;;;1.28;100.00;103735.41;5049012;28;20511;-71
2023/02/07 10:27:50;;;;;;;49.70;19.67;;;;;;;1.42;100.00;103743.66;5051445;28;20033;-69
2023/02/07 10:30:25;;;;;;;61.22;21.70;;;;;;;1.59;100.00;103745.38;5054315;28;20021;-70
2023/02/07 10:32:52;;;;;;;52.60;21.58;;;;;;;1.60;100.00;103753.31;5061953;28;20028;-69
2023/02/07 10:35:31;;;;;;;70.43;21.65;;;;;;;1.42;100.00;103746.25;5049818;28;20054;-71
2023/02/07 10:37:59;;;;;;;47.38;21.63;;;;;;;1.50;100.00;103746.25;5050502;28;20028;-69
2023/02/07 10:40:39;;;;;;;51.38;22.40;;;;;;;1.58;100.00;103747.03;5054368;28;20516;-71
2023/02/07 10:43:13;;;;;;;48.38;20.50;;;;;;;1.79;100.00;103756.06;5054848;28;20029;-69
2023/02/07 10:45:41;;;;;;;45.55;19.42;;;;;;;1.60;100.00;103761.09;5055114;28;20027;-70
2023/02/07 10:48:17;;;;;;;41.53;19.42;;;;;;;1.50;100.00;103763.53;5054277;28;20091;-70
2023/02/07 10:50:42;;;;;;;44.35;19.20;;;;;;;1.48;100.00;103765.06;5042183;28;20029;-68
2023/02/07 10:53:08;;;;;;;55.38;20.63;;;;;;;1.42;100.00;103767.03;5054342;28;20021;-69
2023/02/07 10:55:36;;;;;;;51.90;21.88;;;;;;;1.36;100.00;103762.13;5052527;28;20051;-69
2023/02/07 10:58:01;;;;;;;51.97;20.92;;;;;;;1.61;100.00;103760.31;5061933;28;20029;-71
2023/02/07 11:00:29;;;;;;;43.33;21.00;;;;;;;1.58;100.00;103766.91;5052294;28;20028;-70
2023/02/07 11:03:06;;;;;;;38.92;19.45;;;;;;;1.59;100.00;103766.13;5060409;28;20647;-70
2023/02/07 11:05:37;;;;;;;45.70;19.60;;;;;;;1.62;100.00;103771.63;5051712;28;20029;-70
2023/02/07 11:08:17;;;;;;;38.55;18.27;;;;;;;1.56;100.00;103764.16;5058136;28;20064;-70
2023/02/07 11:10:44;;;;;;;47.80;20.63;;;;;;;1.69;100.00;103756.78;5054085;28;20036;-71
2023/02/07 11:13:17;;;;;;;45.75;20.30;;;;;;;1.79;100.00;103749.94;5049634;28;20476;-70
2023/02/07 11:15:53;;;;;;;41.10;18.63;;;;;;;1.98;100.00;103748.41;5051009;28;20025;-71
2023/02/07 11:18:46;;;;;;;37.95;18.13;;;;;;;2.36;100.00;103743.44;5049179;28;20029;-71